createdAt,value
2022-08-18T06:52:58.092Z,9.27
2022-08-18T06:55:37.218Z,9.35
2022-08-18T06:58:17.940Z,8.80
2022-08-18T07:01:07.805Z,9.00
2022-08-18T07:03:37.961Z,10.88
2022-08-18T07:06:22.713Z,10.90
2022-08-18T07:08:51.970Z,9.98
2022-08-18T07:11:31.265Z,11.07
2022-08-18T07:14:21.209Z,12.82
2022-08-18T07:16:58.936Z,14.50
2022-08-18T07:19:30.782Z,14.38
2022-08-18T07:22:17.243Z,13.38
2022-08-18T07:24:46.779Z,10.40
2022-08-18T07:27:22.938Z,8.48
2022-08-18T07:30:05.860Z,8.25
2022-08-18T07:32:39.754Z,7.05
2022-08-18T07:35:09.367Z,6.38
2022-08-18T07:37:45.179Z,7.00
2022-08-18T07:40:21.098Z,6.93
2022-08-18T07:43:01.593Z,6.80
2022-08-18T07:45:37.674Z,4.93
2022-08-18T07:48:38.264Z,5.40
2022-08-18T07:51:45.549Z,5.10
2022-08-18T07:54:50.230Z,4.35
2022-08-18T08:00:00.513Z,4.35
2022-08-18T08:02:39.281Z,4.35
2022-08-18T08:05:14.675Z,3.50
2022-08-18T08:07:50.642Z,3.80
2022-08-18T08:10:41.892Z,3.38
2022-08-18T08:13:36.873Z,3.70
2022-08-18T08:16:17.423Z,3.10
2022-08-18T08:18:51.004Z,3.30
2022-08-18T08:21:23.160Z,3.42
2022-08-18T08:24:00.029Z,3.20
2022-08-18T08:27:03.696Z,3.55
2022-08-18T08:29:49.334Z,3.95
2022-08-18T08:32:31.566Z,3.72
2022-08-18T08:35:06.508Z,3.50
2022-08-18T08:37:46.565Z,3.40
2022-08-18T08:40:43.027Z,3.10
2022-08-18T08:43:58.926Z,3.08
2022-08-18T08:46:32.967Z,2.75
2022-08-18T08:49:07.537Z,2.80
2022-08-18T08:51:39.623Z,2.60
2022-08-18T08:54:14.107Z,2.92
2022-08-18T08:56:45.698Z,2.65
2022-08-18T08:59:15.822Z,3.03
2022-08-18T09:01:48.013Z,2.70
2022-08-18T09:04:54.913Z,2.83
2022-08-18T09:07:54.672Z,2.90
2022-08-18T09:10:35.179Z,2.97
2022-08-18T09:13:29.183Z,2.90
2022-08-18T09:16:01.899Z,3.00
2022-08-18T09:19:02.163Z,2.95
2022-08-18T09:21:46.878Z,2.85
2022-08-18T09:24:28.097Z,2.33
2022-08-18T09:27:03.578Z,2.67
2022-08-18T09:29:44.190Z,2.80
2022-08-18T09:32:22.621Z,2.65
2022-08-18T09:35:14.167Z,2.30
2022-08-18T09:37:45.253Z,2.55
2022-08-18T09:41:01.972Z,2.97
2022-08-18T09:43:39.335Z,2.50
2022-08-18T09:46:07.905Z,2.97
2022-08-18T09:48:43.216Z,2.70
2022-08-18T09:51:18.207Z,2.85
2022-08-18T09:54:05.315Z,2.63
2022-08-18T09:56:54.206Z,2.53
2022-08-18T09:59:34.561Z,2.78
2022-08-18T10:02:28.509Z,2.90
2022-08-18T10:05:19.698Z,2.80
2022-08-18T10:07:48.814Z,2.63
2022-08-18T10:11:01.756Z,2.50
2022-08-18T10:13:32.368Z,2.50
2022-08-18T10:16:16.252Z,2.13
2022-08-18T10:18:53.830Z,2.20
2022-08-18T10:21:31.165Z,2.28
2022-08-18T10:24:31.605Z,2.78
2022-08-18T10:26:54.082Z,2.75
2022-08-18T10:29:28.477Z,2.60
2022-08-18T10:31:55.297Z,2.80
2022-08-18T10:34:51.658Z,2.70
2022-08-18T10:37:26.330Z,2.47
2022-08-18T10:40:01.064Z,2.42
2022-08-18T10:42:53.507Z,2.50
2022-08-18T10:45:30.567Z,2.60
2022-08-18T10:48:19.057Z,2.50
2022-08-18T10:50:59.824Z,2.40
2022-08-18T10:53:45.553Z,2.25
2022-08-18T10:56:37.945Z,2.65
2022-08-18T11:02:10.213Z,2.30
2022-08-18T11:04:43.622Z,2.20
2022-08-18T11:07:39.669Z,2.15
2022-08-18T11:11:06.166Z,2.10
2022-08-18T11:16:53.450Z,2.10
2022-08-18T11:19:22.735Z,2.05
2022-08-18T11:21:53.035Z,2.10
2022-08-18T11:24:29.624Z,2.15
2022-08-18T11:26:59.021Z,2.22
2022-08-18T11:29:34.629Z,1.90
2022-08-18T11:32:11.966Z,1.95
2022-08-18T11:34:52.116Z,2.00
2022-08-18T11:37:24.292Z,2.33
2022-08-18T11:39:54.776Z,2.40
2022-08-18T11:42:39.746Z,2.47
2022-08-18T11:45:29.026Z,2.05
2022-08-18T11:48:14.712Z,2.30
2022-08-18T11:51:01.897Z,1.83
2022-08-18T11:53:53.865Z,2.40
2022-08-18T11:56:32.374Z,1.98
2022-08-18T11:59:53.091Z,2.00
2022-08-18T12:02:21.132Z,1.98
2022-08-18T12:04:57.688Z,1.83
2022-08-18T12:07:33.927Z,1.90
2022-08-18T12:10:20.760Z,1.80
2022-08-18T12:12:53.996Z,1.83
2022-08-18T12:18:28.880Z,2.00
2022-08-18T12:20:58.836Z,1.80
2022-08-18T12:23:26.087Z,1.90
2022-08-18T12:25:52.713Z,1.63
2022-08-18T12:28:22.434Z,2.00
2022-08-18T12:30:56.527Z,1.85
2022-08-18T12:33:25.216Z,2.42
2022-08-18T12:35:52.619Z,1.90
2022-08-18T12:38:19.373Z,2.05
2022-08-18T12:40:46.094Z,1.92
2022-08-18T12:43:13.121Z,2.10
2022-08-18T12:45:46.465Z,2.05
2022-08-18T12:48:13.176Z,2.00
2022-08-18T12:53:29.645Z,2.20
2022-08-18T12:56:07.394Z,2.05
2022-08-18T12:58:38.189Z,1.92
2022-08-18T13:01:07.360Z,2.00
2022-08-18T13:06:21.504Z,2.05
2022-08-18T13:08:51.034Z,1.88
2022-08-18T13:11:23.367Z,2.10
2022-08-18T13:13:56.481Z,1.85
2022-08-18T13:16:39.153Z,1.75
2022-08-18T13:19:14.856Z,1.80
2022-08-18T13:21:43.050Z,1.40
2022-08-18T13:24:12.551Z,1.88
2022-08-18T13:26:45.881Z,1.77
2022-08-18T13:29:17.689Z,1.80
2022-08-18T13:31:49.294Z,1.60
2022-08-18T13:34:25.307Z,1.67
2022-08-18T13:36:53.240Z,2.00
2022-08-18T13:39:22.504Z,1.88
2022-08-18T13:41:52.673Z,1.75
2022-08-18T13:44:22.586Z,1.63
2022-08-18T13:46:55.533Z,1.92
2022-08-18T13:49:30.262Z,1.70
2022-08-18T13:52:00.499Z,1.77
2022-08-18T13:54:35.123Z,1.85
2022-08-18T13:59:32.858Z,1.58
2022-08-18T14:02:08.587Z,1.70
2022-08-18T14:04:36.236Z,1.80
2022-08-18T14:07:07.240Z,1.75
2022-08-18T14:09:38.074Z,1.65
2022-08-18T14:12:16.042Z,1.63
2022-08-18T14:14:49.973Z,1.70
2022-08-18T14:17:20.183Z,1.60
2022-08-18T14:20:15.546Z,1.55
2022-08-18T14:23:12.973Z,1.73
2022-08-18T14:26:00.048Z,1.60
2022-08-18T14:28:28.374Z,1.70
2022-08-18T14:30:56.149Z,1.60
2022-08-18T14:33:33.934Z,1.67
2022-08-18T14:36:13.897Z,1.52
2022-08-18T14:38:40.777Z,1.50
2022-08-18T14:41:11.001Z,1.50
2022-08-18T14:43:51.785Z,1.45
2022-08-18T14:46:30.298Z,1.40
2022-08-18T14:48:59.689Z,1.80
2022-08-18T14:51:31.927Z,1.70
2022-08-18T14:54:01.118Z,1.45
2022-08-18T14:56:29.486Z,1.75
2022-08-18T14:58:56.807Z,1.63
2022-08-18T15:01:24.591Z,1.80
2022-08-18T15:03:54.316Z,1.63
2022-08-18T15:06:23.111Z,1.90
2022-08-18T15:08:54.766Z,1.63
2022-08-18T15:11:24.505Z,1.70
2022-08-18T15:13:51.589Z,1.88
2022-08-18T15:16:26.968Z,1.75
2022-08-18T15:18:58.401Z,1.98
2022-08-18T15:21:43.689Z,1.58
2022-08-18T15:24:29.195Z,1.90
2022-08-18T15:27:05.536Z,2.13
2022-08-18T15:29:34.009Z,1.80
2022-08-18T15:32:06.182Z,1.67
2022-08-18T15:34:46.191Z,1.60
2022-08-18T15:37:15.226Z,1.60
2022-08-18T15:39:42.067Z,1.35
2022-08-18T15:42:11.537Z,1.60
2022-08-18T15:44:40.140Z,1.70
2022-08-18T15:47:11.445Z,1.90
2022-08-18T15:49:38.590Z,1.63
2022-08-18T15:52:05.329Z,1.52
2022-08-18T15:54:42.263Z,1.50
2022-08-18T15:57:35.267Z,1.67
2022-08-18T16:00:02.076Z,1.73
2022-08-18T16:02:28.766Z,1.50
2022-08-18T16:04:55.658Z,1.63
2022-08-18T16:07:25.243Z,1.40
2022-08-18T16:10:08.147Z,1.70
2022-08-18T16:12:34.941Z,1.50
2022-08-18T16:15:03.939Z,1.48
2022-08-18T16:17:36.016Z,1.53
2022-08-18T16:20:02.847Z,1.65
2022-08-18T16:22:29.653Z,2.05
2022-08-18T16:24:56.309Z,1.50
2022-08-18T16:27:23.091Z,1.42
2022-08-18T16:29:50.292Z,1.60
2022-08-18T16:32:17.027Z,1.30
2022-08-18T16:34:43.661Z,1.70
2022-08-18T16:37:10.950Z,1.33
2022-08-18T16:39:37.695Z,1.38
2022-08-18T16:42:04.639Z,1.20
2022-08-18T16:44:32.681Z,1.58
2022-08-18T16:47:02.874Z,1.40
2022-08-18T16:49:29.710Z,1.50
2022-08-18T16:51:56.794Z,1.75
2022-08-18T16:54:23.418Z,1.20
2022-08-18T16:56:50.072Z,1.52
2022-08-18T16:59:35.343Z,1.60
2022-08-18T17:02:20.615Z,1.38
2022-08-18T17:04:47.562Z,1.40
2022-08-18T17:07:14.253Z,1.23
2022-08-18T17:09:40.915Z,1.30
2022-08-18T17:12:07.868Z,1.40
2022-08-18T17:14:34.585Z,1.27
2022-08-18T17:17:01.718Z,1.50
2022-08-18T17:19:33.519Z,1.40
2022-08-18T17:22:02.254Z,1.33
2022-08-18T17:24:31.658Z,1.65
2022-08-18T17:27:17.881Z,1.40
2022-08-18T17:30:06.879Z,1.40
2022-08-18T17:32:45.675Z,1.48
2022-08-18T17:35:38.033Z,1.38
2022-08-18T17:38:09.106Z,1.52
2022-08-18T17:40:45.061Z,1.63
2022-08-18T17:43:18.540Z,1.40
2022-08-18T17:45:48.771Z,1.30
2022-08-18T17:48:30.237Z,1.35
2022-08-18T17:51:25.404Z,1.40
2022-08-18T17:53:52.091Z,1.50
2022-08-18T17:56:35.351Z,1.20
2022-08-18T17:59:46.007Z,1.65
2022-08-18T18:02:29.593Z,1.65
2022-08-18T18:05:02.835Z,1.55
2022-08-18T18:07:53.069Z,1.45
2022-08-18T18:11:04.429Z,1.50
2022-08-18T18:13:35.206Z,1.13
2022-08-18T18:16:23.360Z,1.27
2022-08-18T18:19:06.001Z,1.20
2022-08-18T18:21:55.414Z,1.20
2022-08-18T18:24:32.185Z,1.48
2022-08-18T18:26:59.020Z,1.38
2022-08-18T18:29:34.607Z,1.42
2022-08-18T18:32:24.642Z,1.58
2022-08-18T18:35:09.826Z,1.55
2022-08-18T18:37:47.143Z,1.75
2022-08-18T18:40:30.610Z,1.35
2022-08-18T18:43:17.744Z,1.23
2022-08-18T18:46:05.219Z,1.60
2022-08-18T18:48:52.097Z,1.60
2022-08-18T18:51:35.911Z,1.60
2022-08-18T18:54:39.826Z,1.52
2022-08-18T18:57:14.531Z,1.40
2022-08-18T19:00:05.179Z,1.50
2022-08-18T19:03:04.456Z,1.40
2022-08-18T19:05:45.766Z,1.50
2022-08-18T19:08:35.859Z,1.40
2022-08-18T19:11:13.409Z,1.30
2022-08-18T19:13:46.739Z,1.42
2022-08-18T19:16:29.323Z,1.50
2022-08-18T19:19:37.707Z,1.50
2022-08-18T19:22:18.916Z,1.30
2022-08-18T19:24:54.237Z,1.60
2022-08-18T19:27:29.472Z,1.33
2022-08-18T19:30:01.573Z,1.60
2022-08-18T19:32:43.728Z,1.58
2022-08-18T19:35:16.123Z,1.35
2022-08-18T19:38:06.086Z,1.40
2022-08-18T19:40:44.939Z,1.50
2022-08-18T19:43:35.899Z,1.70
2022-08-18T19:46:10.924Z,1.73
2022-08-18T19:48:51.432Z,1.58
2022-08-18T19:51:34.591Z,1.70
2022-08-18T19:54:26.352Z,1.80
2022-08-18T19:57:26.628Z,1.90
2022-08-18T20:00:12.126Z,1.70
2022-08-18T20:03:12.692Z,1.75
2022-08-18T20:05:39.381Z,1.52
2022-08-18T20:08:34.262Z,1.75
2022-08-18T20:11:41.768Z,1.63
2022-08-18T20:14:16.805Z,1.65
2022-08-18T20:17:09.521Z,1.73
2022-08-18T20:19:38.869Z,1.60
2022-08-18T20:22:15.900Z,1.88
2022-08-18T20:24:51.774Z,1.80
2022-08-18T20:27:39.730Z,1.63
2022-08-18T20:30:32.784Z,1.90
2022-08-18T20:33:14.909Z,1.42
2022-08-18T20:36:03.478Z,1.70
2022-08-18T20:39:00.853Z,1.80
2022-08-18T20:41:43.992Z,2.05
2022-08-18T20:44:39.188Z,2.20
2022-08-18T20:47:48.104Z,2.08
2022-08-18T20:50:38.107Z,2.20
2022-08-18T20:53:41.005Z,1.90
2022-08-18T20:56:43.859Z,2.40
2022-08-18T20:59:20.224Z,2.40
2022-08-18T21:01:55.968Z,2.05
2022-08-18T21:04:43.067Z,2.08
2022-08-18T21:07:18.450Z,2.20
2022-08-18T21:10:12.336Z,2.00
2022-08-18T21:12:52.310Z,2.00
2022-08-18T21:15:21.259Z,2.20
2022-08-18T21:18:00.274Z,2.13
2022-08-18T21:20:28.027Z,1.90
2022-08-18T21:23:04.170Z,2.20
